createdAt,value
2022-09-17T00:01:11.103Z,13.36
2022-09-17T00:03:38.746Z,13.32
2022-09-17T00:06:08.882Z,13.13
2022-09-17T00:08:38.245Z,13.10
2022-09-17T00:11:10.031Z,13.02
2022-09-17T00:13:38.053Z,13.11
2022-09-17T00:16:06.218Z,13.19
2022-09-17T00:18:36.760Z,13.22
2022-09-17T00:21:05.080Z,13.23
2022-09-17T00:23:32.684Z,13.19
2022-09-17T00:26:00.358Z,13.19
2022-09-17T00:28:29.302Z,13.12
2022-09-17T00:30:56.874Z,13.24
2022-09-17T00:33:24.516Z,13.26
2022-09-17T00:35:59.470Z,13.20
2022-09-17T00:38:27.159Z,13.22
2022-09-17T00:40:54.944Z,13.15
2022-09-17T00:43:37.619Z,13.28
2022-09-17T00:46:07.832Z,13.22
2022-09-17T00:48:35.484Z,13.26
2022-09-17T00:51:04.087Z,13.34
2022-09-17T00:53:31.779Z,13.23
2022-09-17T00:56:04.105Z,13.18
2022-09-17T00:58:37.812Z,13.26
2022-09-17T01:01:09.506Z,13.27
2022-09-17T01:03:37.527Z,13.26
2022-09-17T01:06:16.660Z,13.26
2022-09-17T01:09:00.285Z,13.22
2022-09-17T01:11:48.058Z,13.17
2022-09-17T01:14:26.840Z,13.16
2022-09-17T01:17:02.981Z,13.23
2022-09-17T01:19:59.692Z,13.17
2022-09-17T01:22:34.899Z,13.20
2022-09-17T01:25:23.070Z,13.14
2022-09-17T01:28:27.285Z,13.03
2022-09-17T01:31:14.373Z,12.88
2022-09-17T01:36:28.612Z,13.21
2022-09-17T01:39:03.994Z,13.27
2022-09-17T01:41:41.474Z,13.28
2022-09-17T01:44:12.820Z,13.13
2022-09-17T01:46:45.728Z,13.18
2022-09-17T01:49:16.545Z,13.23
2022-09-17T01:51:49.582Z,13.16
2022-09-17T01:54:23.635Z,13.10
2022-09-17T01:56:59.263Z,13.03
2022-09-17T01:59:32.874Z,13.14
2022-09-17T02:02:08.392Z,13.05
2022-09-17T02:04:39.891Z,13.17
2022-09-17T02:07:13.370Z,13.20
2022-09-17T02:09:44.695Z,13.14
2022-09-17T02:12:19.617Z,13.05
2022-09-17T02:14:51.351Z,12.96
2022-09-17T02:17:27.015Z,12.96
2022-09-17T02:19:56.528Z,12.96
2022-09-17T02:22:29.477Z,12.99
2022-09-17T02:25:05.238Z,13.02
2022-09-17T02:27:44.851Z,12.91
2022-09-17T02:30:12.629Z,12.97
2022-09-17T02:32:42.423Z,13.01
2022-09-17T02:35:10.990Z,12.94
2022-09-17T02:37:38.562Z,13.05
2022-09-17T02:40:07.852Z,13.08
2022-09-17T02:42:50.730Z,13.00
2022-09-17T02:45:31.095Z,12.89
2022-09-17T02:48:13.613Z,12.87
2022-09-17T02:51:01.293Z,12.95
2022-09-17T02:53:38.807Z,12.88
2022-09-17T02:56:18.082Z,12.86
2022-09-17T02:58:53.719Z,12.96
2022-09-17T03:01:29.543Z,12.97
2022-09-17T03:04:02.087Z,12.97
2022-09-17T03:06:32.028Z,12.93
2022-09-17T03:08:59.673Z,12.77
2022-09-17T03:11:28.005Z,12.74
2022-09-17T03:13:55.621Z,12.71
2022-09-17T03:16:23.230Z,12.87
2022-09-17T03:18:50.998Z,12.78
2022-09-17T03:21:19.975Z,12.82
2022-09-17T03:23:48.084Z,12.94
2022-09-17T03:26:15.743Z,12.85
2022-09-17T03:28:43.439Z,12.95
2022-09-17T03:31:11.117Z,12.85
2022-09-17T03:33:38.735Z,12.97
2022-09-17T03:36:06.656Z,12.78
2022-09-17T03:38:38.555Z,12.75
2022-09-17T03:41:08.049Z,12.64
2022-09-17T03:43:35.671Z,12.55
2022-09-17T03:46:03.309Z,12.56
2022-09-17T03:48:35.202Z,12.67
2022-09-17T03:51:02.779Z,12.71
2022-09-17T03:53:30.433Z,12.69
2022-09-17T03:56:00.713Z,12.62
2022-09-17T03:58:30.654Z,12.56
2022-09-17T04:00:58.711Z,12.72
2022-09-17T04:03:26.917Z,12.70
2022-09-17T04:05:54.869Z,12.72
2022-09-17T04:08:22.526Z,12.70
2022-09-17T04:10:50.321Z,12.72
2022-09-17T04:13:19.994Z,12.62
2022-09-17T04:15:48.330Z,12.57
2022-09-17T04:18:16.395Z,12.57
2022-09-17T04:20:44.275Z,12.42
2022-09-17T04:23:13.244Z,12.38
2022-09-17T04:25:40.867Z,12.21
2022-09-17T04:28:08.981Z,12.20
2022-09-17T04:30:38.194Z,12.34
2022-09-17T04:33:05.960Z,12.38
2022-09-17T04:35:33.935Z,12.33
2022-09-17T04:38:01.686Z,12.41
2022-09-17T04:40:29.878Z,12.27
2022-09-17T04:42:59.385Z,12.36
2022-09-17T04:45:27.422Z,12.32
2022-09-17T04:47:57.559Z,12.36
2022-09-17T04:50:25.234Z,12.31
2022-09-17T04:52:52.871Z,12.30
2022-09-17T04:55:20.645Z,12.26
2022-09-17T04:57:48.989Z,12.30
2022-09-17T05:00:18.561Z,12.31
2022-09-17T05:02:48.601Z,12.34
2022-09-17T05:05:19.331Z,12.48
2022-09-17T05:07:47.338Z,12.48
2022-09-17T05:10:16.750Z,12.44
2022-09-17T05:12:49.049Z,12.30
2022-09-17T05:15:16.815Z,12.32
2022-09-17T05:17:44.404Z,12.32
2022-09-17T05:20:12.580Z,12.18
2022-09-17T05:22:45.832Z,12.14
2022-09-17T05:25:14.110Z,12.12
2022-09-17T05:27:42.921Z,12.12
2022-09-17T05:30:11.880Z,12.09
2022-09-17T05:32:40.663Z,12.14
2022-09-17T05:35:09.866Z,12.06
2022-09-17T05:37:38.191Z,11.99
2022-09-17T05:40:09.568Z,11.94
2022-09-17T05:42:37.358Z,12.00
2022-09-17T05:45:05.541Z,12.10
2022-09-17T05:47:35.276Z,12.05
2022-09-17T05:50:02.894Z,12.09
2022-09-17T05:52:30.635Z,11.95
2022-09-17T05:54:58.231Z,11.94
2022-09-17T05:57:30.006Z,11.98
2022-09-17T05:59:57.640Z,11.98
2022-09-17T06:02:25.287Z,12.02
2022-09-17T06:04:52.903Z,12.08
2022-09-17T06:07:20.489Z,11.88
2022-09-17T06:09:48.114Z,11.83
2022-09-17T06:12:15.690Z,11.87
2022-09-17T06:14:44.641Z,11.86
2022-09-17T06:17:12.250Z,11.90
2022-09-17T06:19:39.959Z,11.87
2022-09-17T06:22:07.513Z,11.85
2022-09-17T06:24:35.128Z,11.86
2022-09-17T06:27:02.748Z,12.04
2022-09-17T06:29:30.377Z,11.96
2022-09-17T06:32:00.803Z,12.06
2022-09-17T06:34:28.556Z,12.02
2022-09-17T06:36:56.115Z,12.18
2022-09-17T06:39:24.345Z,12.12
2022-09-17T06:41:51.931Z,12.11
2022-09-17T06:44:19.498Z,12.17
2022-09-17T06:46:50.966Z,12.03
2022-09-17T06:49:20.493Z,12.03
2022-09-17T06:51:48.070Z,12.00
2022-09-17T06:54:15.659Z,11.97
2022-09-17T06:56:43.267Z,11.84
2022-09-17T06:59:10.822Z,11.68
2022-09-17T07:01:38.444Z,11.68
2022-09-17T07:04:08.015Z,11.80
2022-09-17T07:06:37.109Z,11.86
2022-09-17T07:09:10.410Z,11.95
2022-09-17T07:11:38.691Z,11.86
2022-09-17T07:14:06.895Z,11.85
2022-09-17T07:16:36.770Z,11.89
2022-09-17T07:19:05.157Z,11.97
2022-09-17T07:21:33.025Z,11.75
2022-09-17T07:24:02.330Z,11.76
2022-09-17T07:26:30.018Z,11.88
2022-09-17T07:28:57.678Z,11.97
2022-09-17T07:31:25.343Z,11.95
2022-09-17T07:33:52.975Z,11.82
2022-09-17T07:36:20.626Z,11.83
2022-09-17T07:38:48.280Z,11.89
2022-09-17T07:41:18.699Z,11.88
2022-09-17T07:43:46.822Z,11.75
2022-09-17T07:46:16.612Z,11.87
2022-09-17T07:48:44.416Z,11.99
2022-09-17T07:51:16.715Z,12.14
2022-09-17T07:53:44.589Z,12.19
2022-09-17T07:56:12.286Z,12.26
2022-09-17T07:58:42.174Z,12.19
2022-09-17T08:01:11.467Z,12.11
2022-09-17T08:03:40.538Z,12.20
2022-09-17T08:06:09.998Z,12.25
2022-09-17T08:08:38.309Z,12.06
2022-09-17T08:11:08.652Z,12.14
2022-09-17T08:13:36.461Z,12.17
2022-09-17T08:16:08.080Z,12.21
2022-09-17T08:18:36.051Z,12.02
2022-09-17T08:21:05.610Z,12.02
2022-09-17T08:23:36.185Z,11.99
2022-09-17T08:26:04.465Z,12.06
2022-09-17T08:28:32.926Z,12.10
2022-09-17T08:31:02.848Z,11.82
2022-09-17T08:33:33.579Z,11.94
2022-09-17T08:36:01.773Z,12.00
2022-09-17T08:38:37.685Z,12.03
2022-09-17T08:41:19.994Z,12.10
2022-09-17T08:43:52.372Z,12.19
2022-09-17T08:46:20.184Z,12.19
2022-09-17T08:48:57.361Z,12.24
2022-09-17T08:56:27.211Z,12.29
2022-09-17T08:59:10.267Z,12.28
2022-09-17T09:01:46.081Z,12.21
2022-09-17T09:04:49.070Z,12.04
2022-09-17T09:07:20.471Z,11.99
2022-09-17T09:09:51.343Z,12.05
2022-09-17T09:12:23.992Z,12.09
2022-09-17T09:17:38.350Z,12.11
2022-09-17T09:20:05.756Z,12.17
2022-09-17T09:22:46.601Z,12.28
2022-09-17T09:25:23.119Z,12.33
2022-09-17T09:28:02.981Z,12.30
2022-09-17T09:30:40.843Z,12.35
2022-09-17T09:33:14.552Z,12.37
2022-09-17T09:35:43.957Z,12.37
2022-09-17T09:38:22.646Z,12.50
2022-09-17T09:40:55.171Z,12.51
2022-09-17T09:43:36.630Z,12.44
2022-09-17T09:46:32.245Z,12.37
2022-09-17T09:49:13.679Z,12.48
2022-09-17T09:51:51.014Z,12.51
2022-09-17T09:54:31.229Z,12.57
2022-09-17T09:57:05.980Z,12.56
2022-09-17T09:59:34.003Z,12.57
2022-09-17T10:02:01.777Z,12.48
2022-09-17T10:04:32.384Z,12.62
2022-09-17T10:07:04.133Z,12.62
2022-09-17T10:09:32.756Z,12.57
2022-09-17T10:12:02.816Z,12.59
2022-09-17T10:14:31.848Z,12.66
2022-09-17T10:17:15.852Z,12.55
2022-09-17T10:19:46.280Z,12.62
2022-09-17T10:22:25.624Z,12.41
2022-09-17T10:24:55.237Z,12.26
2022-09-17T10:27:24.790Z,12.16
2022-09-17T10:30:02.450Z,11.82
2022-09-17T10:32:30.060Z,11.78
2022-09-17T10:35:05.349Z,11.79
2022-09-17T10:37:36.276Z,11.72
2022-09-17T10:40:25.366Z,11.74
2022-09-17T10:43:20.401Z,11.68
2022-09-17T10:45:59.370Z,11.52
2022-09-17T10:48:30.423Z,11.50
2022-09-17T10:51:01.578Z,11.44
2022-09-17T10:53:29.701Z,11.27
2022-09-17T10:56:10.397Z,11.34
2022-09-17T10:58:52.115Z,11.47
2022-09-17T11:01:33.297Z,11.55
2022-09-17T11:04:22.085Z,11.61
2022-09-17T11:07:13.367Z,11.66
2022-09-17T11:09:53.706Z,11.73
2022-09-17T11:12:34.253Z,11.62
2022-09-17T11:15:12.669Z,11.63
2022-09-17T11:17:59.790Z,11.56
2022-09-17T11:20:45.635Z,11.65
2022-09-17T11:23:33.294Z,11.75
2022-09-17T11:26:05.923Z,11.69
2022-09-17T11:28:51.396Z,11.39
2022-09-17T11:31:31.781Z,11.36
2022-09-17T11:34:25.491Z,11.25
2022-09-17T11:36:59.926Z,11.29
2022-09-17T11:39:37.551Z,11.46
2022-09-17T11:42:11.050Z,11.55
2022-09-17T11:44:43.952Z,11.69
2022-09-17T11:47:15.778Z,11.84
2022-09-17T11:49:49.055Z,11.99
2022-09-17T11:52:25.350Z,12.05
2022-09-17T11:55:12.915Z,12.16
2022-09-17T11:58:11.360Z,12.15
2022-09-17T12:01:01.714Z,12.19
2022-09-17T12:03:34.811Z,12.31
2022-09-17T12:06:10.331Z,12.32
2022-09-17T12:08:43.320Z,12.11
2022-09-17T12:11:19.480Z,12.20
2022-09-17T12:13:51.574Z,12.26
2022-09-17T12:16:26.606Z,12.19
2022-09-17T12:19:01.194Z,12.18
2022-09-17T12:22:01.310Z,12.37
2022-09-17T12:24:30.899Z,12.34
2022-09-17T12:27:41.448Z,12.42
2022-09-17T12:30:18.266Z,12.48
2022-09-17T12:33:06.250Z,12.50
2022-09-17T12:36:04.169Z,12.38
2022-09-17T12:39:05.282Z,12.46
2022-09-17T12:41:43.274Z,12.39
2022-09-17T12:44:35.444Z,12.46
2022-09-17T12:47:25.587Z,12.49
2022-09-17T12:50:14.675Z,12.59
2022-09-17T12:52:58.478Z,12.52
2022-09-17T12:55:36.601Z,12.55
2022-09-17T12:58:15.630Z,12.57
2022-09-17T13:00:49.933Z,12.52
2022-09-17T13:03:26.092Z,12.47
2022-09-17T13:06:33.675Z,12.47
2022-09-17T13:09:35.563Z,12.36
2022-09-17T13:12:10.023Z,12.18
2022-09-17T13:15:07.579Z,12.25
2022-09-17T13:17:43.417Z,12.26
2022-09-17T13:20:21.757Z,12.39
2022-09-17T13:22:52.705Z,12.38
2022-09-17T13:25:22.906Z,12.38
2022-09-17T13:27:52.299Z,12.36
2022-09-17T13:30:21.347Z,12.43
2022-09-17T13:32:53.696Z,12.45
2022-09-17T13:35:50.156Z,12.45
2022-09-17T13:38:23.671Z,12.46
2022-09-17T13:40:52.468Z,12.37
2022-09-17T13:43:26.582Z,12.36
2022-09-17T13:46:23.863Z,12.10
2022-09-17T13:48:58.441Z,11.85
2022-09-17T13:51:48.237Z,11.72
2022-09-17T13:54:18.064Z,11.73
2022-09-17T13:56:49.557Z,11.80
2022-09-17T13:59:20.294Z,12.00
2022-09-17T14:02:00.825Z,12.26
2022-09-17T14:04:48.468Z,12.66
2022-09-17T14:07:49.017Z,12.83
2022-09-17T14:10:38.197Z,12.92
2022-09-17T14:13:27.871Z,13.22
2022-09-17T14:16:03.239Z,13.43
2022-09-17T14:18:37.399Z,13.56
2022-09-17T14:21:15.487Z,13.67
2022-09-17T14:23:46.962Z,13.84
2022-09-17T14:26:25.923Z,13.93
2022-09-17T14:29:01.169Z,13.95
2022-09-17T14:31:34.528Z,13.47
2022-09-17T14:34:04.667Z,13.36
2022-09-17T14:36:36.014Z,13.24
2022-09-17T14:39:07.398Z,13.19
2022-09-17T14:41:40.545Z,13.10
2022-09-17T14:44:14.593Z,12.78
2022-09-17T14:46:49.791Z,12.63
2022-09-17T14:49:22.775Z,12.76
2022-09-17T14:51:50.800Z,12.77
2022-09-17T14:54:23.026Z,12.87
2022-09-17T14:56:56.872Z,12.96
2022-09-17T14:59:43.935Z,12.96
2022-09-17T15:02:34.997Z,12.97
2022-09-17T15:05:04.181Z,12.91
2022-09-17T15:07:31.868Z,12.85
2022-09-17T15:10:15.558Z,12.43
2022-09-17T15:12:44.782Z,12.37
2022-09-17T15:15:19.180Z,12.27
2022-09-17T15:17:47.935Z,12.19
2022-09-17T15:20:20.699Z,12.13
2022-09-17T15:22:54.446Z,12.10
2022-09-17T15:25:25.438Z,12.08
2022-09-17T15:27:56.409Z,12.10
2022-09-17T15:30:25.526Z,12.17
2022-09-17T15:32:55.356Z,12.11
2022-09-17T15:35:28.232Z,12.11
2022-09-17T15:40:47.382Z,12.29
2022-09-17T15:43:19.805Z,12.28
2022-09-17T15:45:47.463Z,12.34
2022-09-17T15:48:25.845Z,12.16
2022-09-17T15:50:55.257Z,12.22
2022-09-17T15:53:27.791Z,12.36
2022-09-17T15:56:07.153Z,12.39
2022-09-17T15:58:50.990Z,12.35
2022-09-17T16:01:52.027Z,12.28
2022-09-17T16:04:22.239Z,12.27
2022-09-17T16:06:53.837Z,12.12
2022-09-17T16:09:43.063Z,11.93
2022-09-17T16:12:15.133Z,11.79
2022-09-17T16:14:47.833Z,11.82
2022-09-17T16:17:33.035Z,11.76
2022-09-17T16:20:06.161Z,11.83
2022-09-17T16:22:34.011Z,11.85
2022-09-17T16:25:01.709Z,11.83
2022-09-17T16:27:33.573Z,11.72
2022-09-17T16:30:04.406Z,11.63
2022-09-17T16:32:31.980Z,11.63
2022-09-17T16:34:59.566Z,11.66
2022-09-17T16:37:27.350Z,11.72
2022-09-17T16:39:54.977Z,11.74
2022-09-17T16:42:22.846Z,11.79
2022-09-17T16:52:15.532Z,11.57
2022-09-17T16:54:41.768Z,11.63
2022-09-17T16:57:08.026Z,11.40
2022-09-17T16:59:34.270Z,11.29
2022-09-17T17:02:00.692Z,11.36
2022-09-17T17:04:26.944Z,11.51
2022-09-17T17:06:53.193Z,11.48
2022-09-17T17:09:20.147Z,11.53
2022-09-17T17:19:15.607Z,11.09
2022-09-17T17:21:46.423Z,10.96
2022-09-17T17:24:13.471Z,10.96
2022-09-17T17:26:39.859Z,10.94
2022-09-17T17:29:07.295Z,10.91
2022-09-17T17:31:33.837Z,10.82
2022-09-17T17:34:00.223Z,10.77
2022-09-17T17:36:27.651Z,10.80
2022-09-17T17:43:57.756Z,10.73
2022-09-17T17:46:24.520Z,10.61
2022-09-17T17:48:51.179Z,10.62
2022-09-17T17:51:18.666Z,10.68
2022-09-17T17:53:45.829Z,10.69
2022-09-17T17:56:12.504Z,10.55
2022-09-17T17:58:39.678Z,10.56
2022-09-17T18:04:23.826Z,10.56
2022-09-17T18:06:50.306Z,10.53
2022-09-17T18:09:16.520Z,10.65
2022-09-17T18:11:43.006Z,10.62
2022-09-17T18:14:11.567Z,10.61
2022-09-17T18:16:38.010Z,10.56
2022-09-17T18:19:04.349Z,10.57
2022-09-17T18:25:20.416Z,10.66
2022-09-17T18:27:46.765Z,10.66
2022-09-17T18:30:13.864Z,10.65
2022-09-17T18:32:40.077Z,10.74
2022-09-17T18:35:06.776Z,10.61
2022-09-17T18:37:33.031Z,10.59
2022-09-17T18:39:59.763Z,10.56
2022-09-17T18:42:27.054Z,10.57
2022-09-17T18:52:17.070Z,10.62
2022-09-17T18:54:45.207Z,10.60
2022-09-17T18:57:12.226Z,10.62
2022-09-17T18:59:38.444Z,10.53
2022-09-17T19:02:05.883Z,10.51
2022-09-17T19:04:32.177Z,10.56
2022-09-17T19:06:58.375Z,10.46
2022-09-17T19:12:13.235Z,10.56
2022-09-17T19:14:39.481Z,10.63
2022-09-17T19:17:05.786Z,10.62
2022-09-17T19:19:32.125Z,10.60
2022-09-17T19:21:58.344Z,10.65
2022-09-17T19:24:24.563Z,10.72
2022-09-17T19:26:51.160Z,10.79
2022-09-17T19:31:56.213Z,10.77
2022-09-17T19:34:22.441Z,10.62
2022-09-17T19:36:48.698Z,10.68
2022-09-17T19:39:16.892Z,10.68
2022-09-17T19:41:43.338Z,10.70
2022-09-17T19:44:09.616Z,10.55
2022-09-17T19:46:35.892Z,10.53
2022-09-17T19:52:52.525Z,10.54
2022-09-17T19:55:19.073Z,10.51
2022-09-17T19:57:45.303Z,10.43
2022-09-17T20:00:12.870Z,10.50
2022-09-17T20:02:39.168Z,10.53
2022-09-17T20:05:06.102Z,10.40
2022-09-17T20:07:33.105Z,10.41
2022-09-17T20:10:00.466Z,10.47
2022-09-17T20:17:30.203Z,10.41
2022-09-17T20:19:56.435Z,10.46
2022-09-17T20:22:22.759Z,10.53
2022-09-17T20:24:51.045Z,10.56
2022-09-17T20:27:18.944Z,10.53
2022-09-17T20:29:46.530Z,10.51
2022-09-17T20:32:14.133Z,10.30
2022-09-17T20:34:43.105Z,10.15
2022-09-17T20:37:13.421Z,10.11
2022-09-17T20:39:41.298Z,10.10
2022-09-17T20:42:09.140Z,9.98
2022-09-17T20:44:36.702Z,9.98
2022-09-17T20:47:05.472Z,9.97
2022-09-17T20:49:33.178Z,9.95
2022-09-17T20:52:02.307Z,9.91
2022-09-17T20:54:29.875Z,9.88
2022-09-17T20:56:57.546Z,9.91
2022-09-17T20:59:29.751Z,9.89
2022-09-17T21:01:57.393Z,9.96
2022-09-17T21:04:27.214Z,9.97
2022-09-17T21:06:56.012Z,10.05
2022-09-17T21:09:24.936Z,10.05
2022-09-17T21:12:06.452Z,10.08
2022-09-17T21:14:34.069Z,10.01
2022-09-17T21:17:01.638Z,9.89
2022-09-17T21:19:29.386Z,9.87
2022-09-17T21:21:57.178Z,9.95
2022-09-17T21:24:26.192Z,9.89
2022-09-17T21:26:54.155Z,9.95
2022-09-17T21:29:21.800Z,9.91
2022-09-17T21:31:49.417Z,9.83
2022-09-17T21:34:18.371Z,9.93
2022-09-17T21:41:48.178Z,9.75
2022-09-17T21:44:14.630Z,9.63
2022-09-17T21:46:41.723Z,9.69
2022-09-17T21:49:08.617Z,9.67
2022-09-17T21:51:36.444Z,9.53
2022-09-17T21:54:06.582Z,9.41
2022-09-17T21:56:33.534Z,9.23
2022-09-17T21:59:02.011Z,9.26
2022-09-17T22:04:16.836Z,9.17
2022-09-17T22:06:44.329Z,9.02
2022-09-17T22:09:14.652Z,9.06
2022-09-17T22:11:40.982Z,9.09
2022-09-17T22:14:11.903Z,9.14
2022-09-17T22:16:40.090Z,9.26
2022-09-17T22:19:07.966Z,9.37
2022-09-17T22:21:37.564Z,9.45
2022-09-17T22:29:11.529Z,9.41
2022-09-17T22:31:38.497Z,9.42
2022-09-17T22:34:07.176Z,9.41
2022-09-17T22:36:33.664Z,9.46
2022-09-17T22:38:59.939Z,9.46
2022-09-17T22:41:28.513Z,9.43
2022-09-17T22:43:56.398Z,9.41
2022-09-17T22:49:02.482Z,9.35
2022-09-17T22:51:29.951Z,9.38
2022-09-17T22:53:57.429Z,9.26
2022-09-17T22:56:24.654Z,9.14
2022-09-17T22:58:51.431Z,9.04
2022-09-17T23:01:19.653Z,9.00
2022-09-17T23:03:48.022Z,9.00
2022-09-17T23:08:59.519Z,9.06
2022-09-17T23:11:27.397Z,8.98
2022-09-17T23:13:56.820Z,9.02
2022-09-17T23:16:23.833Z,9.05
2022-09-17T23:18:50.208Z,9.07
2022-09-17T23:21:18.343Z,9.00
2022-09-17T23:23:46.794Z,9.01
2022-09-17T23:26:16.294Z,8.97
2022-09-17T23:33:47.263Z,8.99
2022-09-17T23:36:15.775Z,9.02
2022-09-17T23:38:43.894Z,9.04
2022-09-17T23:41:14.037Z,9.15
2022-09-17T23:43:41.362Z,9.06
2022-09-17T23:46:07.754Z,9.12
2022-09-17T23:48:34.287Z,9.05
2022-09-17T23:51:02.141Z,8.97
2022-09-17T23:58:32.789Z,9.07
